Time,TemperatureF,DewpointF,PressureIn,WindDirection,WindDirectionDegrees,WindSpeedMPH,WindSpeedGustMPH,Humidity,HourlyPrecipIn,Conditions,Clouds,dailyrainin,SoftwareType,DateUTC
2014-02-25 00:05:00,22.6,8.1,29.84,SSW,202,2.2,-999.0,53,-99.99,,,0.00,Acu-Link.com,2014-02-25 05:05:00,
2014-02-25 00:21:00,22.1,7.6,29.84,WSW,247,3.7,-999.0,53,-99.99,,,0.00,Acu-Link.com,2014-02-25 05:21:00,
2014-02-25 00:36:00,21.4,7.8,29.85,WSW,247,0.0,-999.0,55,-99.99,,,0.00,Acu-Link.com,2014-02-25 05:36:00,
2014-02-25 00:51:00,19.9,7.5,29.86,SW,225,2.7,-999.0,58,-99.99,,,0.00,Acu-Link.com,2014-02-25 05:51:00,
2014-02-25 01:06:00,20.7,8.7,29.86,SW,225,4.2,-999.0,59,-99.99,,,0.00,Acu-Link.com,2014-02-25 06:06:00,
2014-02-25 01:21:00,20.5,8.1,29.86,SW,225,2.2,-999.0,58,-99.99,,,0.00,Acu-Link.com,2014-02-25 06:21:00,
2014-02-25 01:36:00,19.9,7.9,29.86,WSW,247,2.2,-999.0,59,-99.99,,,0.00,Acu-Link.com,2014-02-25 06:36:00,
2014-02-25 01:51:00,19.4,8.2,29.86,South,180,2.2,-999.0,61,-99.99,,,0.00,Acu-Link.com,2014-02-25 06:51:00,
2014-02-25 02:06:00,20.1,7.7,29.85,SW,225,5.8,-999.0,58,-99.99,,,0.00,Acu-Link.com,2014-02-25 07:06:00,
2014-02-25 02:21:00,19.8,7.8,29.85,SW,225,2.2,-999.0,59,-99.99,,,0.00,Acu-Link.com,2014-02-25 07:21:00,
2014-02-25 02:37:00,18.7,7.2,29.85,West,270,1.7,-999.0,60,-99.99,,,0.00,Acu-Link.com,2014-02-25 07:37:00,
2014-02-25 02:52:00,18.0,7.6,29.85,West,270,2.7,-999.0,63,-99.99,,,0.00,Acu-Link.com,2014-02-25 07:52:00,
2014-02-25 03:07:00,18.5,7.3,29.85,WSW,247,2.2,-999.0,61,-99.99,,,0.00,Acu-Link.com,2014-02-25 08:07:00,
2014-02-25 03:22:00,19.0,7.1,29.85,West,270,2.2,-999.0,59,-99.99,,,0.00,Acu-Link.com,2014-02-25 08:22:00,
2014-02-25 03:37:00,18.9,7.3,29.86,SSW,202,2.7,-999.0,60,-99.99,,,0.00,Acu-Link.com,2014-02-25 08:37:00,
2014-02-25 03:52:00,18.7,7.5,29.85,West,270,1.7,-999.0,61,-99.99,,,0.00,Acu-Link.com,2014-02-25 08:52:00,
2014-02-25 04:07:00,18.9,7.7,29.84,SW,225,4.7,-999.0,61,-99.99,,,0.00,Acu-Link.com,2014-02-25 09:07:00,
2014-02-25 04:22:00,18.7,7.5,29.84,SSW,202,2.2,-999.0,61,-99.99,,,0.00,Acu-Link.com,2014-02-25 09:22:00,
2014-02-25 04:37:00,18.0,7.2,29.85,West,270,1.1,-999.0,62,-99.99,,,0.00,Acu-Link.com,2014-02-25 09:37:00,
2014-02-25 04:53:00,17.8,7.4,29.84,WSW,247,2.2,-999.0,63,-99.99,,,0.00,Acu-Link.com,2014-02-25 09:53:00,
2014-02-25 05:08:00,18.0,7.2,29.85,SSW,202,2.7,-999.0,62,-99.99,,,0.00,Acu-Link.com,2014-02-25 10:08:00,
2014-02-25 05:23:00,17.1,7.1,29.86,SE,135,1.1,-999.0,64,-99.99,,,0.00,Acu-Link.com,2014-02-25 10:23:00,
2014-02-25 05:38:00,16.3,6.6,29.86,SSW,202,1.7,-999.0,65,-99.99,,,0.00,Acu-Link.com,2014-02-25 10:38:00,
2014-02-25 05:53:00,15.8,6.5,29.86,WSW,247,1.7,-999.0,66,-99.99,,,0.00,Acu-Link.com,2014-02-25 10:53:00,
2014-02-25 06:08:00,15.3,6.7,29.86,NW,315,0.0,-999.0,68,-99.99,,,0.00,Acu-Link.com,2014-02-25 11:08:00,
2014-02-25 06:23:00,16.0,7.0,29.86,SW,225,2.7,-999.0,67,-99.99,,,0.00,Acu-Link.com,2014-02-25 11:23:00,
2014-02-25 06:38:00,16.3,7.0,29.86,West,270,1.1,-999.0,66,-99.99,,,0.00,Acu-Link.com,2014-02-25 11:38:00,
2014-02-25 06:53:00,17.1,7.4,29.85,SW,225,3.7,-999.0,65,-99.99,,,0.00,Acu-Link.com,2014-02-25 11:53:00,
2014-02-25 07:09:00,18.1,8.0,29.85,SSW,202,1.1,-999.0,64,-99.99,,,0.00,Acu-Link.com,2014-02-25 12:09:00,
2014-02-25 07:24:00,19.8,8.6,29.86,West,270,3.2,-999.0,61,-99.99,,,0.00,Acu-Link.com,2014-02-25 12:24:00,
2014-02-25 07:39:00,20.3,8.7,29.86,ESE,112,1.7,-999.0,60,-99.99,,,0.00,Acu-Link.com,2014-02-25 12:39:00,
2014-02-25 07:54:00,21.2,8.8,29.86,WNW,292,2.7,-999.0,58,-99.99,,,0.00,Acu-Link.com,2014-02-25 12:54:00,
2014-02-25 08:09:00,22.5,9.2,29.85,WNW,292,1.7,-999.0,56,-99.99,,,0.00,Acu-Link.com,2014-02-25 13:09:00,
2014-02-25 08:24:00,23.4,9.2,29.86,SW,225,2.7,-999.0,54,-99.99,,,0.00,Acu-Link.com,2014-02-25 13:24:00,
2014-02-25 08:39:00,23.7,9.1,29.86,SW,225,3.2,-999.0,53,-99.99,,,0.00,Acu-Link.com,2014-02-25 13:39:00,
2014-02-25 08:54:00,24.1,9.1,29.86,NNW,337,6.3,-999.0,52,-99.99,,,0.00,Acu-Link.com,2014-02-25 13:54:00,
2014-02-25 09:09:00,24.3,8.8,29.86,SSE,157,4.7,-999.0,51,-99.99,,,0.00,Acu-Link.com,2014-02-25 14:09:00,
2014-02-25 09:25:00,24.6,8.6,29.85,West,270,4.7,-999.0,50,-99.99,,,0.00,Acu-Link.com,2014-02-25 14:25:00,
2014-02-25 09:40:00,24.6,9.1,29.83,SSW,202,3.7,-999.0,51,-99.99,,,0.00,Acu-Link.com,2014-02-25 14:40:00,
2014-02-25 09:55:00,25.9,9.4,29.86,WSW,247,5.3,-999.0,49,-99.99,,,0.00,Acu-Link.com,2014-02-25 14:55:00,
2014-02-25 10:10:00,25.3,8.8,29.84,NW,315,4.7,-999.0,49,-99.99,,,0.00,Acu-Link.com,2014-02-25 15:10:00,
2014-02-25 10:25:00,26.1,9.6,29.84,SW,225,5.3,-999.0,49,-99.99,,,0.00,Acu-Link.com,2014-02-25 15:25:00,
2014-02-25 10:40:00,26.1,9.1,29.84,West,270,8.3,-999.0,48,-99.99,,,0.00,Acu-Link.com,2014-02-25 15:40:00,
2014-02-25 10:55:00,26.8,10.2,29.84,West,270,4.2,-999.0,49,-99.99,,,0.00,Acu-Link.com,2014-02-25 15:55:00,
2014-02-25 11:10:00,28.9,10.8,29.83,NE,45,3.2,-999.0,46,-99.99,,,0.00,Acu-Link.com,2014-02-25 16:10:00,
2014-02-25 11:25:00,30.4,11.6,29.82,West,270,2.7,-999.0,45,-99.99,,,0.00,Acu-Link.com,2014-02-25 16:25:00,
2014-02-25 11:41:00,30.7,12.4,29.82,SSW,202,5.8,-999.0,46,-99.99,,,0.00,Acu-Link.com,2014-02-25 16:41:00,
2014-02-25 11:56:00,29.1,12.4,29.80,SW,225,4.2,-999.0,49,-99.99,,,0.00,Acu-Link.com,2014-02-25 16:56:00,
2014-02-25 12:11:00,31.3,14.8,29.79,SSW,202,4.7,-999.0,50,-99.99,,,0.00,Acu-Link.com,2014-02-25 17:11:00,
2014-02-25 12:26:00,31.1,16.0,29.78,SE,135,4.2,-999.0,53,-99.99,,,0.00,Acu-Link.com,2014-02-25 17:26:00,
2014-02-25 12:41:00,30.7,16.0,29.78,West,270,7.3,-999.0,54,-99.99,,,0.00,Acu-Link.com,2014-02-25 17:41:00,
2014-02-25 12:56:00,30.0,17.0,29.77,NNW,337,4.7,-999.0,58,-99.99,,,0.00,Acu-Link.com,2014-02-25 17:56:00,
2014-02-25 13:11:00,28.6,17.3,29.77,SW,225,4.7,-999.0,62,-99.99,,,0.00,Acu-Link.com,2014-02-25 18:11:00,
2014-02-25 13:26:00,29.5,17.3,29.76,SSW,202,11.4,-999.0,60,-99.99,,,0.00,Acu-Link.com,2014-02-25 18:26:00,
2014-02-25 13:41:00,27.9,17.0,29.75,South,180,6.8,-999.0,63,-99.99,,,0.00,Acu-Link.com,2014-02-25 18:41:00,
2014-02-25 13:57:00,29.1,17.0,29.75,South,180,8.9,-999.0,60,-99.99,,,0.00,Acu-Link.com,2014-02-25 18:57:00,
2014-02-25 14:12:00,29.3,14.7,29.74,SE,135,5.8,-999.0,54,-99.99,,,0.00,Acu-Link.com,2014-02-25 19:12:00,
2014-02-25 14:27:00,28.9,13.9,29.74,SSW,202,7.3,-999.0,53,-99.99,,,0.00,Acu-Link.com,2014-02-25 19:27:00,
2014-02-25 14:42:00,30.7,14.3,29.73,West,270,4.7,-999.0,50,-99.99,,,0.00,Acu-Link.com,2014-02-25 19:42:00,
2014-02-25 14:57:00,32.4,14.9,29.74,SSW,202,7.8,-999.0,48,-99.99,,,0.00,Acu-Link.com,2014-02-25 19:57:00,
2014-02-25 15:12:00,30.0,13.6,29.73,West,270,9.4,-999.0,50,-99.99,,,0.00,Acu-Link.com,2014-02-25 20:12:00,
2014-02-25 15:27:00,29.8,13.5,29.73,SSW,202,7.3,-999.0,50,-99.99,,,0.00,Acu-Link.com,2014-02-25 20:27:00,
2014-02-25 15:42:00,29.7,13.4,29.72,WNW,292,5.8,-999.0,50,-99.99,,,0.00,Acu-Link.com,2014-02-25 20:42:00,
2014-02-25 15:57:00,28.8,12.1,29.72,SW,225,4.2,-999.0,49,-99.99,,,0.00,Acu-Link.com,2014-02-25 20:57:00,
2014-02-25 16:13:00,29.8,12.5,29.72,NNE,22,5.8,-999.0,48,-99.99,,,0.00,Acu-Link.com,2014-02-25 21:13:00,
2014-02-25 16:28:00,29.8,12.1,29.72,West,270,7.8,-999.0,47,-99.99,,,0.00,Acu-Link.com,2014-02-25 21:28:00,
2014-02-25 16:43:00,28.9,12.2,29.72,West,270,3.2,-999.0,49,-99.99,,,0.00,Acu-Link.com,2014-02-25 21:43:00,
2014-02-25 16:58:00,28.0,12.7,29.72,West,270,5.8,-999.0,52,-99.99,,,0.00,Acu-Link.com,2014-02-25 21:58:00,
2014-02-25 17:13:00,27.3,12.0,29.72,NNE,22,2.7,-999.0,52,-99.99,,,0.00,Acu-Link.com,2014-02-25 22:13:00,
2014-02-25 17:28:00,26.8,12.0,29.72,SW,225,5.8,-999.0,53,-99.99,,,0.00,Acu-Link.com,2014-02-25 22:28:00,
2014-02-25 17:43:00,26.2,11.4,29.73,West,270,5.3,-999.0,53,-99.99,,,0.00,Acu-Link.com,2014-02-25 22:43:00,
2014-02-25 17:58:00,26.2,11.4,29.74,West,270,4.7,-999.0,53,-99.99,,,0.00,Acu-Link.com,2014-02-25 22:58:00,
2014-02-25 18:13:00,25.9,11.6,29.74,NW,315,4.2,-999.0,54,-99.99,,,0.00,Acu-Link.com,2014-02-25 23:13:00,
2014-02-25 18:29:00,25.7,11.0,29.74,WSW,247,2.2,-999.0,53,-99.99,,,0.00,Acu-Link.com,2014-02-25 23:29:00,
2014-02-25 18:44:00,25.3,10.6,29.75,NNE,22,2.2,-999.0,53,-99.99,,,0.00,Acu-Link.com,2014-02-25 23:44:00,
2014-02-25 18:59:00,24.8,10.5,29.75,SW,225,2.7,-999.0,54,-99.99,,,0.00,Acu-Link.com,2014-02-25 23:59:00,
2014-02-25 19:14:00,24.3,10.5,29.75,West,270,1.1,-999.0,55,-99.99,,,0.00,Acu-Link.com,2014-02-26 00:14:00,
2014-02-25 19:29:00,23.5,10.1,29.76,WSW,247,3.2,-999.0,56,-99.99,,,0.00,Acu-Link.com,2014-02-26 00:29:00,
2014-02-25 19:44:00,23.0,9.7,29.77,WSW,247,2.2,-999.0,56,-99.99,,,0.00,Acu-Link.com,2014-02-26 00:44:00,
2014-02-25 19:59:00,23.0,9.7,29.76,WNW,292,2.2,-999.0,56,-99.99,,,0.00,Acu-Link.com,2014-02-26 00:59:00,
2014-02-25 20:14:00,22.1,9.2,29.77,West,270,0.0,-999.0,57,-99.99,,,0.00,Acu-Link.com,2014-02-26 01:14:00,
2014-02-25 20:29:00,21.2,9.1,29.78,West,270,2.7,-999.0,59,-99.99,,,0.00,Acu-Link.com,2014-02-26 01:29:00,
2014-02-25 20:45:00,20.5,8.9,29.78,West,270,1.7,-999.0,60,-99.99,,,0.00,Acu-Link.com,2014-02-26 01:45:00,
2014-02-25 21:00:00,20.7,9.0,29.79,SSW,202,1.1,-999.0,60,-99.99,,,0.00,Acu-Link.com,2014-02-26 02:00:00,
2014-02-25 21:15:00,20.1,8.8,29.79,NNE,22,0.0,-999.0,61,-99.99,,,0.00,Acu-Link.com,2014-02-26 02:15:00,
2014-02-25 21:30:00,19.8,9.3,29.80,WNW,292,1.7,-999.0,63,-99.99,,,0.00,Acu-Link.com,2014-02-26 02:30:00,
2014-02-25 21:45:00,19.8,10.3,29.80,NE,45,2.2,-999.0,66,-99.99,,,0.00,Acu-Link.com,2014-02-26 02:45:00,
2014-02-25 22:00:00,19.4,10.3,29.80,SW,225,0.0,-999.0,67,-99.99,,,0.00,Acu-Link.com,2014-02-26 03:00:00,
2014-02-25 22:16:00,18.7,9.9,29.80,South,180,0.0,-999.0,68,-99.99,,,0.00,Acu-Link.com,2014-02-26 03:16:00,
2014-02-25 22:31:00,17.4,9.3,29.80,NNW,337,1.7,-999.0,70,-99.99,,,0.00,Acu-Link.com,2014-02-26 03:31:00,
2014-02-25 22:46:00,16.7,9.6,29.80,West,270,0.0,-999.0,73,-99.99,,,0.00,Acu-Link.com,2014-02-26 03:46:00,
2014-02-25 23:01:00,15.3,8.5,29.80,West,270,0.0,-999.0,74,-99.99,,,0.00,Acu-Link.com,2014-02-26 04:01:00,
2014-02-25 23:16:00,14.0,7.9,29.80,West,270,0.0,-999.0,76,-99.99,,,0.00,Acu-Link.com,2014-02-26 04:16:00,
2014-02-25 23:31:00,13.3,7.5,29.80,West,270,0.0,-999.0,77,-99.99,,,0.00,Acu-Link.com,2014-02-26 04:31:00,
2014-02-25 23:46:00,13.1,8.7,29.80,West,270,0.0,-999.0,82,-99.99,,,0.00,Acu-Link.com,2014-02-26 04:46:00,